Time;durP1;ratioP1;P1;durP2;ratioP2;P2;SDS_P1;SDS_P2;PMS_P1;PMS_P2;Temp;Humidity;BMP_temperature;BMP_pressure;BME280_temperature;BME280_humidity;BME280_pressure;Samples;Min_cycle;Max_cycle;Signal;HPM_P1;HPM_P2
2022/07/27 00:00:26;;;;;;;2.33;1.10;;;24.10;90.20;;;;;;7389392;19;20151;-72
2022/07/27 00:02:52;;;;;;;1.33;1.00;;;24.20;90.30;;;;;;7394769;19;20143;-72
2022/07/27 00:05:21;;;;;;;1.50;1.20;;;24.10;90.30;;;;;;7392804;19;20135;-72
2022/07/27 00:07:46;;;;;;;1.88;1.02;;;24.10;90.40;;;;;;7396465;19;20139;-72
2022/07/27 00:10:13;;;;;;;3.22;1.20;;;24.10;90.50;;;;;;7391271;19;20593;-71
2022/07/27 00:12:39;;;;;;;2.72;1.05;;;24.00;90.70;;;;;;7389910;19;20147;-72
2022/07/27 00:15:06;;;;;;;1.98;1.10;;;23.90;90.90;;;;;;7390458;19;20141;-70
2022/07/27 00:17:32;;;;;;;1.65;1.17;;;23.90;91.00;;;;;;7390291;19;20539;-71
2022/07/27 00:19:58;;;;;;;2.25;1.25;;;23.90;91.00;;;;;;7391219;19;20146;-72
2022/07/27 00:22:23;;;;;;;1.58;1.13;;;23.80;91.20;;;;;;7390575;19;20496;-71
2022/07/27 00:24:49;;;;;;;2.80;1.40;;;23.70;91.40;;;;;;7391093;19;20154;-71
2022/07/27 00:27:16;;;;;;;2.13;1.08;;;23.80;91.50;;;;;;7389277;19;20624;-71
2022/07/27 00:29:42;;;;;;;2.30;1.20;;;23.80;91.40;;;;;;7393497;19;20214;-69
2022/07/27 00:32:08;;;;;;;2.80;1.20;;;23.60;91.60;;;;;;7388495;19;20598;-70
2022/07/27 00:34:34;;;;;;;2.45;1.30;;;23.60;91.80;;;;;;7392596;19;20142;-71
2022/07/27 00:37:00;;;;;;;2.58;1.40;;;23.60;92.10;;;;;;7391113;19;20134;-71
2022/07/27 00:39:26;;;;;;;4.18;1.40;;;23.70;91.80;;;;;;7392219;19;20131;-69
2022/07/27 00:41:51;;;;;;;1.50;0.95;;;23.80;91.70;;;;;;7391086;19;20131;-71
2022/07/27 00:44:25;;;;;;;2.17;1.23;;;23.70;92.00;;;;;;7391185;19;20943;-71
2022/07/27 00:46:51;;;;;;;2.08;1.15;;;23.80;91.80;;;;;;7392469;19;20174;-71
2022/07/27 00:49:17;;;;;;;4.20;1.50;;;23.70;91.90;;;;;;7391538;19;20502;-71
2022/07/27 00:51:44;;;;;;;2.70;1.42;;;23.70;92.10;;;;;;7388828;19;20206;-72
2022/07/27 00:54:09;;;;;;;1.55;1.20;;;23.80;91.90;;;;;;7388454;19;20138;-71
2022/07/27 00:56:36;;;;;;;2.08;1.60;;;23.60;92.10;;;;;;7393279;19;20230;-71
2022/07/27 00:59:01;;;;;;;2.25;1.30;;;23.80;92.00;;;;;;7394850;19;20450;-71
2022/07/27 01:01:27;;;;;;;2.45;1.35;;;23.80;91.90;;;;;;7396409;19;20175;-71
2022/07/27 01:03:53;;;;;;;3.13;1.25;;;23.80;92.00;;;;;;7388037;19;20159;-71
2022/07/27 01:06:19;;;;;;;1.40;1.30;;;23.60;92.20;;;;;;7390801;19;20156;-70
2022/07/27 01:08:45;;;;;;;3.40;1.60;;;23.60;92.30;;;;;;7391065;19;20135;-71
2022/07/27 01:11:11;;;;;;;2.15;1.40;;;23.50;92.30;;;;;;7390789;19;20150;-72
2022/07/27 01:13:37;;;;;;;4.03;1.20;;;23.40;92.50;;;;;;7392378;19;20225;-70
2022/07/27 01:16:05;;;;;;;1.50;1.10;;;23.50;92.60;;;;;;7390478;19;20154;-71
2022/07/27 01:18:35;;;;;;;1.30;1.20;;;23.50;92.60;;;;;;7392820;19;20510;-70
2022/07/27 01:21:03;;;;;;;6.43;1.35;;;23.60;92.60;;;;;;7391937;19;20185;-70
2022/07/27 01:23:33;;;;;;;2.58;1.40;;;23.70;92.50;;;;;;7390040;19;20138;-70
2022/07/27 01:26:00;;;;;;;2.00;1.23;;;23.60;92.60;;;;;;7391685;19;20171;-71
2022/07/27 01:28:26;;;;;;;1.63;1.13;;;23.60;92.60;;;;;;7389371;19;20145;-72
2022/07/27 01:30:53;;;;;;;1.80;1.00;;;23.60;92.60;;;;;;7387841;19;20626;-70
2022/07/27 01:33:24;;;;;;;3.20;1.67;;;23.60;92.60;;;;;;7395442;19;20597;-70
2022/07/27 01:35:53;;;;;;;2.97;1.25;;;23.70;92.50;;;;;;7392828;19;20153;-71
2022/07/27 01:38:20;;;;;;;1.60;1.40;;;23.60;92.60;;;;;;7390844;19;20273;-72
2022/07/27 01:40:46;;;;;;;2.22;1.48;;;23.50;92.80;;;;;;7389202;19;20135;-70
2022/07/27 01:43:11;;;;;;;6.22;1.50;;;23.40;93.00;;;;;;7395069;19;20591;-70
2022/07/27 01:45:38;;;;;;;1.85;1.30;;;23.40;93.20;;;;;;7393420;19;20146;-70
2022/07/27 01:48:04;;;;;;;2.45;1.30;;;23.30;93.30;;;;;;7390604;19;20485;-71
2022/07/27 01:50:30;;;;;;;2.85;1.48;;;23.40;93.20;;;;;;7389429;19;20636;-71
2022/07/27 01:52:56;;;;;;;2.17;1.70;;;23.40;93.20;;;;;;7387927;19;20591;-71
2022/07/27 01:55:22;;;;;;;2.00;1.30;;;23.50;93.10;;;;;;7388050;19;20131;-69
2022/07/27 01:57:48;;;;;;;1.48;1.38;;;23.40;93.40;;;;;;7389954;19;20142;-71
2022/07/27 02:00:14;;;;;;;2.15;1.40;;;23.40;93.40;;;;;;7392355;19;20129;-70
2022/07/27 02:02:40;;;;;;;1.95;1.30;;;23.30;93.40;;;;;;7388726;19;20289;-71
2022/07/27 02:05:10;;;;;;;1.60;1.17;;;23.40;93.50;;;;;;7386754;19;20155;-70
2022/07/27 02:07:38;;;;;;;4.80;1.67;;;23.40;93.60;;;;;;7391463;19;20218;-71
2022/07/27 02:10:04;;;;;;;1.08;1.05;;;23.30;93.60;;;;;;7392307;19;20206;-71
2022/07/27 02:12:36;;;;;;;2.25;1.42;;;23.30;93.70;;;;;;7386179;19;20151;-71
2022/07/27 02:15:15;;;;;;;1.33;1.23;;;23.20;93.90;;;;;;7386931;19;20139;-70
2022/07/27 02:17:43;;;;;;;2.22;1.60;;;23.30;93.90;;;;;;7388026;19;20146;-70
2022/07/27 02:20:10;;;;;;;2.35;1.30;;;23.10;94.20;;;;;;7387213;19;20154;-71
2022/07/27 02:22:36;;;;;;;2.10;1.30;;;23.00;94.30;;;;;;7389767;19;20182;-70
2022/07/27 02:25:03;;;;;;;2.70;1.40;;;23.10;94.20;;;;;;7385742;19;20135;-70
2022/07/27 02:27:29;;;;;;;2.08;1.70;;;23.20;94.10;;;;;;7387065;19;20151;-70
2022/07/27 02:29:55;;;;;;;3.80;1.80;;;23.00;94.30;;;;;;7389224;19;20859;-70
2022/07/27 02:32:21;;;;;;;3.22;1.50;;;22.80;94.60;;;;;;7385983;19;20170;-71
2022/07/27 02:34:46;;;;;;;1.75;1.15;;;22.10;95.80;;;;;;7386817;19;20164;-71
2022/07/27 02:37:12;;;;;;;1.90;1.45;;;22.20;96.30;;;;;;7386254;19;20145;-70
2022/07/27 02:39:38;;;;;;;3.25;1.30;;;22.50;95.90;;;;;;7390089;19;20159;-70
2022/07/27 02:42:04;;;;;;;1.75;1.20;;;22.60;95.90;;;;;;7386973;19;20175;-70
2022/07/27 02:44:30;;;;;;;1.45;1.35;;;22.80;95.40;;;;;;7385901;19;20146;-69
2022/07/27 02:46:56;;;;;;;1.30;1.10;;;22.80;95.40;;;;;;7389213;19;20147;-70
2022/07/27 02:49:22;;;;;;;2.90;1.45;;;22.60;95.70;;;;;;7389917;19;20139;-75
2022/07/27 02:51:50;;;;;;;3.05;1.63;;;22.70;95.60;;;;;;7385850;19;20573;-76
2022/07/27 02:54:25;;;;;;;1.98;1.58;;;22.70;95.60;;;;;;7394188;19;20143;-76
2022/07/27 02:56:52;;;;;;;2.55;1.73;;;22.60;95.80;;;;;;7388365;19;20526;-77
2022/07/27 02:59:19;;;;;;;2.83;1.50;;;22.60;95.90;;;;;;7386661;19;20154;-77
2022/07/27 03:01:45;;;;;;;3.03;1.40;;;22.80;95.90;;;;;;7387753;19;20126;-75
2022/07/27 03:04:12;;;;;;;2.70;1.27;;;22.80;96.00;;;;;;7388304;19;20127;-76
2022/07/27 03:06:37;;;;;;;2.53;1.40;;;22.80;95.90;;;;;;7391968;19;20138;-76
2022/07/27 03:09:03;;;;;;;2.40;1.63;;;22.70;96.30;;;;;;7386394;19;20596;-75
2022/07/27 03:11:29;;;;;;;3.38;1.60;;;22.70;96.20;;;;;;7388171;19;20143;-76
2022/07/27 03:13:55;;;;;;;1.60;1.20;;;22.80;96.10;;;;;;7385196;19;20220;-74
2022/07/27 03:16:21;;;;;;;2.92;1.40;;;22.70;96.20;;;;;;7387946;19;20242;-74
2022/07/27 03:18:47;;;;;;;2.40;1.42;;;22.70;96.60;;;;;;7386997;19;20135;-77
2022/07/27 03:21:12;;;;;;;1.70;1.20;;;22.40;96.80;;;;;;7386011;19;20173;-77
2022/07/27 03:23:38;;;;;;;6.78;1.70;;;22.40;96.90;;;;;;7386410;19;20135;-76
2022/07/27 03:26:04;;;;;;;2.08;1.35;;;22.40;97.00;;;;;;7386533;19;20151;-78
2022/07/27 03:28:30;;;;;;;3.40;1.50;;;22.40;97.10;;;;;;7389431;19;20157;-75
2022/07/27 03:30:56;;;;;;;1.45;1.20;;;22.30;97.40;;;;;;7381856;19;20146;-77
2022/07/27 03:33:22;;;;;;;3.83;1.40;;;22.20;97.90;;;;;;7389674;19;20155;-77
2022/07/27 03:35:48;;;;;;;2.17;1.75;;;22.30;97.90;;;;;;7381876;19;20138;-76
2022/07/27 03:38:14;;;;;;;3.00;1.30;;;22.40;97.80;;;;;;7387140;19;20145;-76
2022/07/27 03:40:40;;;;;;;2.55;1.40;;;22.40;97.70;;;;;;7386990;19;20118;-76
2022/07/27 03:43:07;;;;;;;3.30;1.48;;;22.50;97.70;;;;;;7390323;19;20161;-76
2022/07/27 03:45:32;;;;;;;1.55;1.35;;;22.40;98.00;;;;;;7387903;19;20146;-77
2022/07/27 03:47:59;;;;;;;2.00;1.30;;;22.20;98.30;;;;;;7389752;19;20798;-77
2022/07/27 03:50:26;;;;;;;1.48;1.30;;;22.30;98.40;;;;;;7383129;19;20133;-76
2022/07/27 03:52:52;;;;;;;2.70;1.40;;;22.20;98.60;;;;;;7385383;19;20238;-76
2022/07/27 03:55:21;;;;;;;4.88;1.70;;;22.20;98.60;;;;;;7382413;19;20154;-76
2022/07/27 03:57:47;;;;;;;3.08;1.88;;;22.30;98.60;;;;;;7387629;19;20147;-76
2022/07/27 04:00:14;;;;;;;3.53;1.85;;;22.30;99.00;;;;;;7385498;19;20174;-75
2022/07/27 04:02:40;;;;;;;3.05;1.30;;;22.30;98.80;;;;;;7384578;19;20143;-73
2022/07/27 04:05:07;;;;;;;2.33;1.75;;;22.10;99.30;;;;;;7389038;19;20133;-75
2022/07/27 04:07:33;;;;;;;2.15;1.90;;;22.20;99.30;;;;;;7385421;19;20206;-76
2022/07/27 04:09:59;;;;;;;2.25;1.60;;;22.20;99.40;;;;;;7385224;19;20139;-76
2022/07/27 04:12:24;;;;;;;2.53;1.73;;;22.10;99.50;;;;;;7386061;19;20198;-76
2022/07/27 04:14:50;;;;;;;3.65;1.95;;;22.00;99.70;;;;;;7388266;19;20135;-75
2022/07/27 04:17:16;;;;;;;3.10;1.88;;;22.00;99.90;;;;;;7386984;19;20142;-77
2022/07/27 04:19:42;;;;;;;2.15;1.70;;;22.10;99.90;;;;;;7386323;19;20135;-77
2022/07/27 04:22:07;;;;;;;2.03;1.75;;;22.00;99.90;;;;;;7384973;19;20562;-74
2022/07/27 04:24:33;;;;;;;1.85;1.58;;;21.90;99.90;;;;;;7387416;19;20545;-76
2022/07/27 04:26:59;;;;;;;4.18;1.80;;;21.90;99.90;;;;;;7379915;19;20146;-76
2022/07/27 04:29:25;;;;;;;2.97;1.52;;;21.90;99.90;;;;;;7385703;19;20159;-76
2022/07/27 04:31:51;;;;;;;2.03;1.70;;;21.90;99.90;;;;;;7383131;19;20139;-76
2022/07/27 04:34:16;;;;;;;4.15;2.58;;;22.00;99.90;;;;;;7385279;19;20139;-76
2022/07/27 04:36:43;;;;;;;2.47;1.80;;;21.90;99.90;;;;;;7383084;19;20150;-76
2022/07/27 04:39:09;;;;;;;2.25;1.42;;;21.90;99.90;;;;;;7391901;19;20145;-76
2022/07/27 04:41:35;;;;;;;2.53;1.70;;;21.90;99.90;;;;;;7391396;19;20656;-75
2022/07/27 04:44:01;;;;;;;2.97;1.70;;;22.00;99.90;;;;;;7395129;19;20647;-77
2022/07/27 04:46:28;;;;;;;4.32;1.80;;;22.00;99.90;;;;;;7390719;19;20137;-77
2022/07/27 04:48:54;;;;;;;2.60;1.80;;;21.90;99.90;;;;;;7397742;19;20163;-77
2022/07/27 04:51:20;;;;;;;1.63;1.50;;;21.80;99.90;;;;;;7388167;19;20161;-76
2022/07/27 04:53:46;;;;;;;2.28;1.65;;;21.70;99.90;;;;;;7394624;19;20185;-77
2022/07/27 04:56:12;;;;;;;5.20;1.95;;;21.70;99.90;;;;;;7390636;19;20131;-77
2022/07/27 04:58:38;;;;;;;3.33;1.90;;;21.70;99.90;;;;;;7390089;19;20138;-75
2022/07/27 05:01:04;;;;;;;3.10;1.67;;;21.70;99.90;;;;;;7396635;19;20127;-76
2022/07/27 05:03:30;;;;;;;3.28;2.10;;;21.80;99.90;;;;;;7389513;19;20135;-76
2022/07/27 05:05:56;;;;;;;3.50;1.70;;;21.90;99.90;;;;;;7390866;19;20512;-76
2022/07/27 05:08:21;;;;;;;2.90;1.90;;;21.80;99.90;;;;;;7391477;19;20126;-75
2022/07/27 05:10:48;;;;;;;3.75;1.80;;;21.90;99.90;;;;;;7392756;19;20150;-75
2022/07/27 05:13:13;;;;;;;2.00;1.80;;;21.90;99.90;;;;;;7389071;19;20604;-76
2022/07/27 05:15:39;;;;;;;2.83;1.98;;;21.90;99.90;;;;;;7390604;19;20139;-76
2022/07/27 05:18:05;;;;;;;3.63;2.13;;;21.90;99.90;;;;;;7387978;19;20155;-77
2022/07/27 05:20:31;;;;;;;2.60;1.90;;;21.90;99.90;;;;;;7391929;19;20146;-76
2022/07/27 05:22:57;;;;;;;3.05;1.80;;;21.80;99.90;;;;;;7389604;19;20146;-76
2022/07/27 05:25:26;;;;;;;2.78;1.80;;;21.80;99.90;;;;;;7392653;19;20217;-76
2022/07/27 05:27:53;;;;;;;2.75;1.98;;;21.80;99.90;;;;;;7391325;19;20138;-76
2022/07/27 05:30:20;;;;;;;2.58;2.20;;;21.60;99.90;;;;;;7387145;19;20553;-74
2022/07/27 05:32:46;;;;;;;3.50;1.95;;;21.60;99.90;;;;;;7393822;19;20146;-74
2022/07/27 05:35:13;;;;;;;2.10;1.85;;;21.60;99.90;;;;;;7390987;19;20149;-75
2022/07/27 05:37:38;;;;;;;3.28;2.17;;;21.70;99.90;;;;;;7393488;19;20139;-75
2022/07/27 05:40:06;;;;;;;2.88;2.08;;;21.70;99.90;;;;;;7390718;19;20550;-75
2022/07/27 05:42:32;;;;;;;2.55;1.67;;;21.60;99.90;;;;;;7391854;19;20233;-73
2022/07/27 05:44:57;;;;;;;2.17;1.83;;;21.60;99.90;;;;;;7392460;19;20142;-76
2022/07/27 05:47:23;;;;;;;2.30;2.08;;;21.70;99.90;;;;;;7386771;19;20198;-75
2022/07/27 05:49:49;;;;;;;2.65;2.17;;;21.90;99.90;;;;;;7385552;19;20739;-74
2022/07/27 05:52:15;;;;;;;2.33;1.98;;;21.90;99.90;;;;;;7386272;19;20130;-74
2022/07/27 05:54:42;;;;;;;2.08;1.88;;;21.90;99.90;;;;;;7387069;19;20150;-73
2022/07/27 05:57:08;;;;;;;5.90;2.00;;;21.90;99.90;;;;;;7388985;19;20138;-74
2022/07/27 05:59:35;;;;;;;2.42;2.00;;;21.90;99.90;;;;;;7389013;19;20607;-73
2022/07/27 06:02:02;;;;;;;3.43;2.20;;;22.00;99.90;;;;;;7386618;19;20374;-73
2022/07/27 06:04:28;;;;;;;3.42;2.50;;;21.90;99.90;;;;;;7391241;19;20130;-72
2022/07/27 06:09:39;;;;;;;2.90;2.08;;;22.10;99.90;;;;;;7383850;19;20143;-73
2022/07/27 06:12:05;;;;;;;2.92;2.03;;;22.10;99.90;;;;;;7388971;19;20147;-73
2022/07/27 06:14:31;;;;;;;1.70;1.60;;;22.00;99.90;;;;;;7389655;19;20139;-74
2022/07/27 06:16:57;;;;;;;4.18;2.30;;;22.00;99.90;;;;;;7383989;19;20166;-73
2022/07/27 06:19:23;;;;;;;3.63;1.83;;;22.10;99.90;;;;;;7390918;19;20173;-72
2022/07/27 06:21:49;;;;;;;2.22;2.03;;;22.00;99.90;;;;;;7387911;19;20216;-72
2022/07/27 06:24:16;;;;;;;4.55;1.98;;;22.00;99.90;;;;;;7389707;19;20158;-71
2022/07/27 06:26:43;;;;;;;3.17;2.20;;;22.00;99.90;;;;;;7390257;19;20164;-74
2022/07/27 06:29:08;;;;;;;2.97;2.03;;;22.10;99.90;;;;;;7389228;19;20503;-74
2022/07/27 06:31:34;;;;;;;2.00;1.80;;;22.20;99.90;;;;;;7389483;19;20135;-73
2022/07/27 06:34:00;;;;;;;3.97;2.00;;;22.30;99.90;;;;;;7390844;19;20692;-73
2022/07/27 06:36:26;;;;;;;3.97;1.92;;;22.30;99.90;;;;;;7391475;19;20225;-74
2022/07/27 06:38:52;;;;;;;4.50;2.13;;;22.00;99.90;;;;;;7382991;19;20599;-72
2022/07/27 06:41:18;;;;;;;3.17;2.00;;;22.30;99.90;;;;;;7387359;19;20489;-73
2022/07/27 06:43:44;;;;;;;2.95;1.88;;;22.30;99.90;;;;;;7388352;19;20154;-74
2022/07/27 06:46:13;;;;;;;2.58;2.08;;;22.40;99.90;;;;;;7389656;19;20489;-74
2022/07/27 06:48:40;;;;;;;3.55;1.90;;;22.50;99.90;;;;;;7390017;19;20153;-72
2022/07/27 06:51:06;;;;;;;2.95;2.10;;;22.40;99.90;;;;;;7389318;19;20210;-74
2022/07/27 06:53:32;;;;;;;2.20;2.00;;;22.40;99.90;;;;;;7388867;19;20237;-73
2022/07/27 06:56:02;;;;;;;3.70;1.85;;;22.60;99.90;;;;;;7387559;19;20185;-73
2022/07/27 06:58:30;;;;;;;2.47;2.00;;;22.70;99.90;;;;;;7390934;19;20209;-73
2022/07/27 07:00:56;;;;;;;3.70;1.98;;;22.70;99.90;;;;;;7387525;19;20233;-72
2022/07/27 07:03:23;;;;;;;3.38;2.38;;;22.70;99.90;;;;;;7384814;19;20142;-72
2022/07/27 07:05:48;;;;;;;5.28;2.13;;;22.50;99.90;;;;;;7388053;19;20154;-70
2022/07/27 07:08:14;;;;;;;2.00;1.80;;;22.50;99.90;;;;;;7388503;19;20131;-73
2022/07/27 07:10:42;;;;;;;2.13;1.92;;;22.50;99.90;;;;;;7387854;19;20135;-72
2022/07/27 07:13:08;;;;;;;3.20;2.03;;;22.70;99.90;;;;;;7388375;19;20512;-74
2022/07/27 07:15:37;;;;;;;3.70;1.90;;;22.80;99.90;;;;;;7393737;19;20580;-74
2022/07/27 07:18:04;;;;;;;5.03;2.10;;;23.00;99.90;;;;;;7395430;19;20134;-74
2022/07/27 07:20:30;;;;;;;4.15;2.10;;;23.20;99.90;;;;;;7387557;19;20142;-73
2022/07/27 07:22:59;;;;;;;3.83;2.35;;;23.20;99.90;;;;;;7389256;19;20596;-74
2022/07/27 07:25:26;;;;;;;3.72;2.03;;;23.40;99.90;;;;;;7388264;19;20136;-72
2022/07/27 07:27:53;;;;;;;3.63;2.15;;;23.40;99.90;;;;;;7390769;19;20146;-74
2022/07/27 07:30:19;;;;;;;2.50;1.80;;;23.50;99.90;;;;;;7389257;19;20135;-74
2022/07/27 07:32:46;;;;;;;2.88;2.22;;;23.60;99.90;;;;;;7384294;19;20146;-71
2022/07/27 07:35:12;;;;;;;3.03;2.20;;;23.50;99.90;;;;;;7384861;19;20177;-74
2022/07/27 07:37:38;;;;;;;3.85;2.20;;;23.40;99.90;;;;;;7388700;19;20154;-74
2022/07/27 07:40:05;;;;;;;2.83;2.20;;;23.30;99.90;;;;;;7389097;19;20214;-74
2022/07/27 07:42:31;;;;;;;3.35;2.20;;;23.20;99.90;;;;;;7388822;19;20138;-72
2022/07/27 07:44:57;;;;;;;4.60;1.90;;;23.10;99.90;;;;;;7386182;19;20162;-73
2022/07/27 07:47:23;;;;;;;5.45;2.25;;;23.00;99.90;;;;;;7386125;19;20137;-72
2022/07/27 07:49:49;;;;;;;4.03;2.20;;;22.90;99.90;;;;;;7386724;19;20262;-73
2022/07/27 07:52:15;;;;;;;2.75;1.60;;;23.00;99.90;;;;;;7386895;19;20161;-72
2022/07/27 07:54:41;;;;;;;2.47;1.90;;;22.90;99.90;;;;;;7384730;19;20158;-73
2022/07/27 07:57:07;;;;;;;3.97;2.20;;;22.90;99.90;;;;;;7387502;19;20147;-73
2022/07/27 07:59:33;;;;;;;5.93;2.00;;;22.90;99.90;;;;;;7382355;19;20142;-74
2022/07/27 08:02:02;;;;;;;2.13;1.92;;;22.70;99.90;;;;;;7382223;19;20156;-74
2022/07/27 08:04:28;;;;;;;2.33;2.08;;;22.80;99.90;;;;;;7389326;19;20658;-74
2022/07/27 08:06:53;;;;;;;3.53;1.95;;;22.90;99.90;;;;;;7384947;19;20154;-73
2022/07/27 08:09:20;;;;;;;3.38;2.17;;;23.10;99.90;;;;;;7383604;19;20222;-74
2022/07/27 08:11:46;;;;;;;3.22;2.10;;;23.30;99.90;;;;;;7387271;19;20499;-74
2022/07/27 08:14:12;;;;;;;2.58;2.30;;;23.30;99.90;;;;;;7392025;19;20134;-74
2022/07/27 08:16:38;;;;;;;9.48;4.35;;;23.30;99.90;;;;;;7395055;19;20190;-74
2022/07/27 08:19:04;;;;;;;3.15;2.30;;;23.20;99.90;;;;;;7390839;19;20170;-76
2022/07/27 08:21:29;;;;;;;4.55;2.33;;;23.40;99.90;;;;;;7391626;19;20738;-74
2022/07/27 08:23:55;;;;;;;3.97;2.20;;;23.30;99.90;;;;;;7390155;19;20621;-74
2022/07/27 08:26:21;;;;;;;4.55;3.75;;;23.30;99.90;;;;;;7391059;19;20150;-74
2022/07/27 08:28:47;;;;;;;1.88;1.63;;;23.10;99.90;;;;;;7388521;19;20162;-72
2022/07/27 08:31:13;;;;;;;2.55;2.05;;;23.40;99.90;;;;;;7393481;19;20130;-74
2022/07/27 08:33:39;;;;;;;4.13;2.10;;;23.60;99.90;;;;;;7392788;19;20126;-73
2022/07/27 08:36:05;;;;;;;3.47;2.15;;;23.80;99.90;;;;;;7387933;19;20185;-72
2022/07/27 08:38:31;;;;;;;2.85;1.90;;;23.90;99.90;;;;;;7395093;19;20194;-74
2022/07/27 08:41:00;;;;;;;5.10;2.17;;;24.00;99.90;;;;;;7389698;19;20154;-71
2022/07/27 08:43:26;;;;;;;2.35;1.90;;;24.20;99.90;;;;;;7394317;19;20507;-72
2022/07/27 08:45:57;;;;;;;2.22;2.03;;;24.20;99.90;;;;;;7392895;19;20214;-74
2022/07/27 08:48:25;;;;;;;2.50;2.00;;;24.10;99.90;;;;;;7389416;19;20145;-74
2022/07/27 08:50:52;;;;;;;5.32;2.17;;;24.00;99.90;;;;;;7386912;19;20568;-74
2022/07/27 08:53:18;;;;;;;3.47;2.00;;;24.00;99.90;;;;;;7384418;19;20194;-73
2022/07/27 08:55:46;;;;;;;2.70;2.13;;;24.00;99.90;;;;;;7390380;19;20161;-73
2022/07/27 08:58:13;;;;;;;4.63;2.60;;;24.10;99.90;;;;;;7387238;19;20138;-74
2022/07/27 09:00:43;;;;;;;3.17;2.80;;;24.30;99.90;;;;;;7393137;19;20142;-73
2022/07/27 09:03:13;;;;;;;4.82;2.75;;;24.50;99.90;;;;;;7393842;19;20161;-74
2022/07/27 09:05:46;;;;;;;6.45;2.15;;;24.60;99.90;;;;;;7391564;19;20146;-74
2022/07/27 09:08:15;;;;;;;3.17;1.98;;;24.50;99.90;;;;;;7394173;19;20141;-74
2022/07/27 09:10:42;;;;;;;4.65;2.40;;;24.50;99.90;;;;;;7390260;19;20453;-75
2022/07/27 09:13:30;;;;;;;4.25;2.63;;;24.50;99.90;;;;;;7388772;19;20549;-73
2022/07/27 09:15:59;;;;;;;2.83;2.00;;;24.50;99.90;;;;;;7395019;19;20181;-74
2022/07/27 09:18:27;;;;;;;2.47;2.28;;;24.50;99.90;;;;;;7390336;19;20158;-73
2022/07/27 09:21:15;;;;;;;2.67;2.30;;;24.60;99.90;;;;;;7392111;19;20182;-74
2022/07/27 09:23:49;;;;;;;4.55;2.08;;;24.90;99.90;;;;;;7392462;19;20134;-72
2022/07/27 09:26:22;;;;;;;5.55;2.08;;;25.00;99.90;;;;;;7389397;19;20174;-73
2022/07/27 09:29:01;;;;;;;2.40;2.03;;;24.90;99.90;;;;;;7387965;19;20616;-73
2022/07/27 09:31:27;;;;;;;2.90;2.22;;;24.70;99.90;;;;;;7393278;19;20163;-73
2022/07/27 09:33:58;;;;;;;3.58;2.33;;;24.70;99.90;;;;;;7389415;19;20635;-74
2022/07/27 09:36:27;;;;;;;2.47;2.28;;;24.70;99.90;;;;;;7390877;19;20157;-73
2022/07/27 09:39:01;;;;;;;5.43;2.50;;;24.60;99.90;;;;;;7390754;19;20157;-75
2022/07/27 09:41:44;;;;;;;3.17;2.45;;;24.50;99.90;;;;;;7388613;19;20146;-77
2022/07/27 09:44:11;;;;;;;2.70;2.17;;;24.40;99.90;;;;;;7390423;19;20130;-73
2022/07/27 09:46:39;;;;;;;3.25;2.25;;;24.30;99.90;;;;;;7392731;19;20134;-74
2022/07/27 09:49:24;;;;;;;9.55;3.20;;;24.20;99.90;;;;;;7393142;19;20131;-72
2022/07/27 09:51:49;;;;;;;3.67;2.40;;;24.20;99.90;;;;;;7391926;19;20545;-72
2022/07/27 09:54:15;;;;;;;3.20;2.90;;;24.30;99.90;;;;;;7388210;19;20142;-74
2022/07/27 09:56:41;;;;;;;5.55;2.72;;;24.50;99.90;;;;;;7391833;19;20133;-74
2022/07/27 09:59:07;;;;;;;3.40;2.80;;;24.50;99.90;;;;;;7388873;19;20163;-73
2022/07/27 10:01:36;;;;;;;2.53;2.33;;;24.60;99.90;;;;;;7387470;19;20141;-74
2022/07/27 10:04:07;;;;;;;4.32;2.78;;;24.50;99.90;;;;;;7392496;19;20178;-72
2022/07/27 10:06:33;;;;;;;4.57;4.15;;;24.50;99.90;;;;;;7385676;19;20165;-74
2022/07/27 10:09:00;;;;;;;3.03;2.58;;;24.50;99.90;;;;;;7391772;19;20130;-72
2022/07/27 10:11:27;;;;;;;2.65;2.17;;;24.50;99.90;;;;;;7388974;19;20153;-73
2022/07/27 10:13:54;;;;;;;3.00;2.13;;;24.70;99.90;;;;;;7391740;19;20129;-74
2022/07/27 10:16:24;;;;;;;3.42;2.20;;;25.00;99.90;;;;;;7386746;19;20235;-72
2022/07/27 10:19:24;;;;;;;4.07;2.00;;;25.00;99.70;;;;;;7391462;19;20579;-73
2022/07/27 10:21:50;;;;;;;3.25;2.58;;;25.10;99.70;;;;;;7390755;19;20158;-71
2022/07/27 10:24:35;;;;;;;4.65;2.15;;;25.20;99.60;;;;;;7391467;19;20153;-73
2022/07/27 10:27:19;;;;;;;2.10;1.90;;;25.30;99.30;;;;;;7389413;19;20206;-72
2022/07/27 10:29:50;;;;;;;3.45;1.98;;;25.30;99.00;;;;;;7386920;19;20152;-73
2022/07/27 10:32:27;;;;;;;2.15;1.90;;;25.30;99.20;;;;;;7387151;19;20545;-75
2022/07/27 10:34:53;;;;;;;2.58;2.20;;;25.20;98.60;;;;;;7390259;19;20158;-74
2022/07/27 10:37:30;;;;;;;4.60;2.40;;;25.10;98.50;;;;;;7383023;19;20975;-74
2022/07/27 10:40:47;;;;;;;3.88;2.30;;;24.90;98.80;;;;;;7386572;19;20140;-75
2022/07/27 10:42:50;;;;;;;3.13;1.70;;;25.00;98.80;;;;;;7388001;19;20170;-73
2022/07/27 10:45:17;;;;;;;2.53;2.13;;;25.20;98.70;;;;;;7393272;19;20158;-76
2022/07/27 10:47:46;;;;;;;2.83;2.05;;;25.20;98.50;;;;;;7388743;19;20512;-75
2022/07/27 10:50:14;;;;;;;2.60;2.15;;;25.30;97.80;;;;;;7381608;19;20192;-75
2022/07/27 10:53:05;;;;;;;2.38;2.10;;;25.30;97.10;;;;;;7383821;19;20138;-73
2022/07/27 10:55:35;;;;;;;1.80;1.70;;;25.40;96.50;;;;;;7380275;19;20150;-73
2022/07/27 10:58:10;;;;;;;3.08;2.50;;;25.50;96.10;;;;;;7386054;19;20798;-75
2022/07/27 11:00:47;;;;;;;2.08;1.80;;;25.60;95.50;;;;;;7383272;19;20137;-71
2022/07/27 11:03:20;;;;;;;2.35;1.63;;;25.70;95.80;;;;;;7380130;19;21008;-72
2022/07/27 11:05:57;;;;;;;3.25;1.92;;;25.70;95.90;;;;;;7379493;19;20142;-72
2022/07/27 11:08:31;;;;;;;2.70;1.77;;;25.90;95.80;;;;;;7389799;19;20130;-75
2022/07/27 11:10:58;;;;;;;3.13;1.90;;;26.00;95.70;;;;;;7388610;19;20142;-73
2022/07/27 11:13:25;;;;;;;4.43;1.90;;;26.00;95.60;;;;;;7388356;19;20654;-75
2022/07/27 11:15:55;;;;;;;4.13;2.00;;;26.00;95.50;;;;;;7386550;19;20127;-75
2022/07/27 11:18:25;;;;;;;3.05;2.03;;;26.00;95.40;;;;;;7389201;19;20131;-73
2022/07/27 11:20:51;;;;;;;2.58;1.92;;;25.80;95.40;;;;;;7380724;19;20142;-74
2022/07/27 11:23:18;;;;;;;2.05;1.67;;;25.70;95.40;;;;;;7385749;19;20131;-74
2022/07/27 11:26:00;;;;;;;2.33;2.00;;;25.70;95.50;;;;;;7387189;19;20181;-75
2022/07/27 11:28:30;;;;;;;2.42;1.60;;;25.80;95.60;;;;;;7387485;19;20201;-75
2022/07/27 11:30:57;;;;;;;2.97;1.90;;;25.80;95.60;;;;;;7389351;19;20632;-75
2022/07/27 11:33:23;;;;;;;3.00;2.00;;;25.80;95.60;;;;;;7388956;19;20134;-75
2022/07/27 11:36:08;;;;;;;2.75;1.90;;;25.80;95.40;;;;;;7384469;19;20130;-73
2022/07/27 11:38:51;;;;;;;3.45;1.95;;;25.70;95.40;;;;;;7384354;19;20197;-72
2022/07/27 11:41:32;;;;;;;1.65;1.48;;;25.60;95.60;;;;;;7387497;19;20154;-73
2022/07/27 11:44:00;;;;;;;1.75;1.52;;;25.70;95.40;;;;;;7386262;19;20137;-73
2022/07/27 11:46:29;;;;;;;1.90;1.73;;;25.60;95.10;;;;;;7389701;19;20143;-73
2022/07/27 11:48:58;;;;;;;2.30;1.80;;;25.90;94.40;;;;;;7388943;19;20198;-72
2022/07/27 11:51:24;;;;;;;2.42;1.40;;;26.10;93.80;;;;;;7388334;19;20139;-74
2022/07/27 11:54:08;;;;;;;1.88;1.52;;;26.30;93.20;;;;;;7382664;19;20624;-72
2022/07/27 11:56:36;;;;;;;1.60;1.42;;;26.40;92.80;;;;;;7387668;19;20138;-73
2022/07/27 11:59:09;;;;;;;3.90;1.58;;;26.60;92.30;;;;;;7385786;19;20162;-75
2022/07/27 12:01:38;;;;;;;1.63;1.30;;;26.70;92.10;;;;;;7388320;19;20135;-75
2022/07/27 12:04:12;;;;;;;1.40;1.30;;;26.60;92.20;;;;;;7387609;19;20754;-73
2022/07/27 12:06:40;;;;;;;2.35;1.40;;;26.40;92.50;;;;;;7387240;19;20130;-72
2022/07/27 12:09:07;;;;;;;1.52;1.33;;;26.20;92.60;;;;;;7383218;19;20135;-73
2022/07/27 12:11:46;;;;;;;3.40;2.08;;;26.00;92.80;;;;;;7385522;19;20134;-72
2022/07/27 12:14:35;;;;;;;1.85;1.40;;;25.90;92.90;;;;;;7386198;19;20136;-71
2022/07/27 12:17:07;;;;;;;1.95;1.75;;;25.90;92.90;;;;;;7384687;19;20146;-72
2022/07/27 12:19:32;;;;;;;2.17;1.67;;;26.00;92.80;;;;;;7383891;19;20589;-72
2022/07/27 12:21:58;;;;;;;2.60;1.20;;;26.00;92.80;;;;;;7378360;19;20362;-72
2022/07/27 12:24:32;;;;;;;1.30;1.20;;;26.10;92.70;;;;;;7380212;19;20592;-72
2022/07/27 12:27:12;;;;;;;1.20;1.10;;;26.10;92.30;;;;;;7385859;19;20143;-73
2022/07/27 12:30:15;;;;;;;1.98;1.42;;;26.00;92.30;;;;;;7375337;19;20636;-73
2022/07/27 12:32:43;;;;;;;2.00;1.40;;;26.10;92.40;;;;;;7380505;19;20845;-73
2022/07/27 12:35:25;;;;;;;4.65;1.52;;;26.30;92.10;;;;;;7384746;19;20134;-73
2022/07/27 12:38:02;;;;;;;4.13;1.67;;;26.40;91.60;;;;;;7386725;19;20154;-73
2022/07/27 12:40:29;;;;;;;1.60;1.50;;;26.40;91.30;;;;;;7388586;19;20139;-75
2022/07/27 12:43:00;;;;;;;1.67;1.17;;;26.50;90.60;;;;;;7387981;19;20593;-73
2022/07/27 12:45:32;;;;;;;1.35;1.15;;;26.40;90.30;;;;;;7385888;19;20147;-75
2022/07/27 12:48:16;;;;;;;2.08;1.20;;;26.20;90.30;;;;;;7388652;19;20159;-75
2022/07/27 12:50:55;;;;;;;3.38;1.27;;;26.00;90.40;;;;;;7386003;19;20159;-74
2022/07/27 12:53:21;;;;;;;1.52;1.40;;;26.00;90.60;;;;;;7388440;19;20232;-73
2022/07/27 12:55:47;;;;;;;1.40;1.15;;;26.00;90.80;;;;;;7377190;19;20139;-74